Time;durP1;ratioP1;P1;durP2;ratioP2;P2;SDS_P1;SDS_P2;PMS_P1;PMS_P2;Temp;Humidity;BMP_temperature;BMP_pressure;BME280_temperature;BME280_humidity;BME280_pressure;Samples;Min_cycle;Max_cycle;Signal;HPM_P1;HPM_P2
2022/10/14 00:01:19;;;;;;;50.27;24.53;;;8.00;99.90;;;;;;4362035;28;659822;-67
2022/10/14 00:04:06;;;;;;;48.03;24.43;;;7.90;99.90;;;;;;4350386;28;658587;-67
2022/10/14 00:06:53;;;;;;;39.63;21.80;;;7.90;99.90;;;;;;4375185;28;659757;-67
2022/10/14 00:09:41;;;;;;;42.67;22.90;;;7.90;99.90;;;;;;4348965;28;659217;-67
2022/10/14 00:12:30;;;;;;;43.30;21.37;;;7.90;99.90;;;;;;4372729;28;660429;-66
2022/10/14 00:15:17;;;;;;;42.00;22.00;;;8.00;99.90;;;;;;4346025;28;658622;-67
2022/10/14 00:18:04;;;;;;;46.03;23.60;;;8.00;99.90;;;;;;4365325;28;659063;-66
2022/10/14 00:20:55;;;;;;;43.90;21.37;;;7.90;99.90;;;;;;4338288;28;659659;-67
2022/10/14 00:23:42;;;;;;;47.00;23.17;;;7.80;99.90;;;;;;4347017;28;660238;-66
2022/10/14 00:26:30;;;;;;;43.83;22.30;;;7.80;99.90;;;;;;4370202;28;658954;-67
2022/10/14 00:29:19;;;;;;;43.77;21.20;;;7.80;99.90;;;;;;4343131;28;660356;-66
2022/10/14 00:32:06;;;;;;;43.90;23.23;;;7.80;99.90;;;;;;4346085;28;658852;-67
2022/10/14 00:34:53;;;;;;;46.37;22.60;;;7.90;99.90;;;;;;4369991;28;660351;-67
2022/10/14 00:37:40;;;;;;;39.93;20.63;;;7.90;99.90;;;;;;4329666;28;659273;-67
2022/10/14 00:40:28;;;;;;;36.87;18.83;;;8.00;99.90;;;;;;4359611;28;660189;-66
2022/10/14 00:43:15;;;;;;;41.97;21.33;;;8.00;99.90;;;;;;4341014;28;658713;-68
2022/10/14 00:46:04;;;;;;;43.37;21.57;;;8.00;99.90;;;;;;4348677;28;659268;-67
2022/10/14 00:48:51;;;;;;;34.73;19.90;;;8.00;99.90;;;;;;4333740;28;658919;-67
2022/10/14 00:51:39;;;;;;;41.13;20.33;;;8.00;99.90;;;;;;4351514;28;659449;-67
2022/10/14 00:54:29;;;;;;;48.83;22.03;;;8.10;99.90;;;;;;4332056;28;658605;-67
2022/10/14 00:57:16;;;;;;;41.20;23.47;;;8.10;99.90;;;;;;4333901;28;658592;-67
2022/10/14 01:00:07;;;;;;;45.20;21.90;;;8.10;99.90;;;;;;4355359;28;659330;-67
2022/10/14 01:02:55;;;;;;;46.07;22.97;;;8.10;99.90;;;;;;4328718;28;659705;-67
2022/10/14 01:05:45;;;;;;;35.27;19.00;;;8.10;99.90;;;;;;4323854;28;659820;-67
2022/10/14 01:08:34;;;;;;;39.63;19.37;;;8.20;99.90;;;;;;4332593;28;658956;-67
2022/10/14 01:11:25;;;;;;;40.53;19.77;;;8.20;99.90;;;;;;4331628;28;659577;-66
2022/10/14 01:14:15;;;;;;;42.70;18.97;;;8.30;99.90;;;;;;4329041;28;658963;-67
2022/10/14 01:17:06;;;;;;;41.90;19.53;;;8.30;99.90;;;;;;4332020;28;660036;-67
2022/10/14 01:20:15;;;;;;;33.67;18.60;;;8.30;99.90;;;;;;4326389;28;660781;-67
2022/10/14 01:23:12;;;;;;;40.55;19.17;;;8.40;99.90;;;;;;4334062;28;658785;-66
2022/10/14 01:26:02;;;;;;;43.80;19.93;;;8.50;99.90;;;;;;4349287;28;659320;-67
2022/10/14 01:28:52;;;;;;;38.73;18.80;;;8.50;99.90;;;;;;4351669;28;658724;-66
2022/10/14 01:31:42;;;;;;;35.97;19.33;;;8.50;99.90;;;;;;4328323;28;658841;-67
2022/10/14 01:34:33;;;;;;;39.33;20.10;;;8.60;99.90;;;;;;4334735;28;658701;-66
2022/10/14 01:37:23;;;;;;;41.17;19.50;;;8.60;99.90;;;;;;4338461;28;658608;-67
2022/10/14 01:40:12;;;;;;;37.27;19.10;;;8.60;99.90;;;;;;4348469;28;658349;-68
2022/10/14 01:42:59;;;;;;;39.30;21.27;;;8.60;99.90;;;;;;4365298;28;659277;-66
2022/10/14 01:45:47;;;;;;;36.93;20.87;;;8.60;99.90;;;;;;4348645;28;659164;-67
2022/10/14 01:48:37;;;;;;;37.60;19.70;;;8.60;99.90;;;;;;4372982;28;658907;-67
2022/10/14 01:51:30;;;;;;;42.83;23.23;;;8.60;99.90;;;;;;4343249;28;659170;-67
2022/10/14 01:54:19;;;;;;;41.03;22.30;;;8.70;99.90;;;;;;4313736;28;659076;-66
2022/10/14 01:57:08;;;;;;;46.67;24.40;;;8.60;99.90;;;;;;4342797;28;658672;-66
2022/10/14 01:59:55;;;;;;;41.43;21.93;;;8.70;99.90;;;;;;4350334;28;659620;-68
2022/10/14 02:02:42;;;;;;;54.23;26.17;;;8.60;99.90;;;;;;4368697;28;659690;-66
2022/10/14 02:05:34;;;;;;;47.43;23.93;;;8.60;99.90;;;;;;4366012;28;659321;-67
2022/10/14 02:08:25;;;;;;;45.60;25.13;;;8.60;99.90;;;;;;4346419;28;658633;-66
2022/10/14 02:11:14;;;;;;;44.17;24.17;;;8.60;99.90;;;;;;4344228;28;658991;-67
2022/10/14 02:14:10;;;;;;;50.33;24.83;;;8.60;99.90;;;;;;4351165;28;658579;-67
2022/10/14 02:16:59;;;;;;;48.20;23.73;;;8.60;99.90;;;;;;4348049;28;658371;-66
2022/10/14 02:19:48;;;;;;;43.97;23.47;;;8.70;99.90;;;;;;4349350;28;658643;-67
2022/10/14 02:22:38;;;;;;;39.60;22.43;;;8.60;99.90;;;;;;4345293;28;658319;-68
2022/10/14 02:25:26;;;;;;;40.92;23.05;;;8.70;99.90;;;;;;4350820;28;659039;-68
2022/10/14 02:28:16;;;;;;;38.27;21.60;;;8.70;99.90;;;;;;4369079;28;659515;-66
2022/10/14 02:31:05;;;;;;;48.13;21.67;;;8.70;99.90;;;;;;4348158;28;658974;-67
2022/10/14 02:33:53;;;;;;;41.30;21.23;;;8.80;99.90;;;;;;4342373;28;659828;-67
2022/10/14 02:36:41;;;;;;;43.90;20.67;;;8.70;99.90;;;;;;4347723;28;659048;-67
2022/10/14 02:39:31;;;;;;;48.03;23.90;;;8.70;99.90;;;;;;4365665;28;658925;-66
2022/10/14 02:42:18;;;;;;;51.93;26.30;;;8.70;99.90;;;;;;4349577;28;659295;-67
2022/10/14 02:45:06;;;;;;;42.27;21.63;;;8.70;99.90;;;;;;4352027;28;658613;-68
2022/10/14 02:47:53;;;;;;;44.37;23.53;;;8.80;99.90;;;;;;4369923;28;659864;-66
2022/10/14 02:50:40;;;;;;;50.50;25.85;;;8.70;99.90;;;;;;4343013;28;660171;-68
2022/10/14 02:53:28;;;;;;;39.57;20.63;;;8.80;99.90;;;;;;4366361;28;659493;-67
2022/10/14 02:56:17;;;;;;;48.00;23.27;;;8.70;99.90;;;;;;4348308;28;658696;-67
2022/10/14 02:59:04;;;;;;;51.08;23.70;;;8.80;99.90;;;;;;4365739;28;658892;-66
2022/10/14 03:01:51;;;;;;;40.97;22.77;;;8.80;99.90;;;;;;4350080;28;659372;-66
2022/10/14 03:04:38;;;;;;;41.55;22.55;;;8.80;99.90;;;;;;4371276;28;660137;-67
2022/10/14 03:07:25;;;;;;;42.37;23.43;;;8.90;99.90;;;;;;4350469;28;658711;-67
2022/10/14 03:10:13;;;;;;;39.70;21.93;;;8.90;99.90;;;;;;4375186;28;660423;-67
2022/10/14 03:13:02;;;;;;;38.23;21.43;;;8.90;99.90;;;;;;4355346;28;659379;-68
2022/10/14 03:15:50;;;;;;;37.03;19.90;;;8.90;99.90;;;;;;4368302;28;658892;-67
2022/10/14 03:18:37;;;;;;;36.97;20.40;;;8.90;99.90;;;;;;4371012;28;659712;-66
2022/10/14 03:21:24;;;;;;;48.10;21.03;;;8.90;99.90;;;;;;4377995;28;658681;-66
2022/10/14 03:24:12;;;;;;;38.83;22.40;;;8.90;99.90;;;;;;4343942;28;659338;-67
2022/10/14 03:26:59;;;;;;;39.63;22.27;;;8.90;99.90;;;;;;4371010;28;659052;-67
2022/10/14 03:29:47;;;;;;;47.00;23.73;;;8.90;99.90;;;;;;4349500;28;658650;-67
2022/10/14 03:32:35;;;;;;;37.33;22.13;;;8.90;99.90;;;;;;4373349;28;658657;-68
2022/10/14 03:35:22;;;;;;;46.43;23.47;;;8.90;99.90;;;;;;4373883;28;659914;-66
2022/10/14 03:38:09;;;;;;;44.83;23.33;;;9.00;99.90;;;;;;4371665;28;658922;-67
2022/10/14 03:40:57;;;;;;;46.77;23.03;;;9.00;99.90;;;;;;4351718;28;659865;-68
2022/10/14 03:43:44;;;;;;;42.00;22.70;;;9.00;99.90;;;;;;4373144;28;658022;-67
2022/10/14 03:46:32;;;;;;;35.47;19.53;;;9.00;99.90;;;;;;4351951;28;658691;-67
2022/10/14 03:49:20;;;;;;;35.33;20.47;;;8.90;99.90;;;;;;4369099;28;658861;-68
2022/10/14 03:52:07;;;;;;;33.95;19.23;;;8.90;99.90;;;;;;4378087;28;658849;-67
2022/10/14 03:54:55;;;;;;;35.40;17.87;;;8.90;99.90;;;;;;4371832;28;658901;-66
2022/10/14 03:57:42;;;;;;;36.70;19.20;;;8.80;99.90;;;;;;4348687;28;659426;-67
2022/10/14 04:00:29;;;;;;;34.73;17.97;;;8.80;99.90;;;;;;4369868;28;658693;-67
2022/10/14 04:03:18;;;;;;;38.33;18.35;;;8.70;99.90;;;;;;4349306;28;658565;-67
2022/10/14 04:06:05;;;;;;;32.70;18.07;;;8.70;99.90;;;;;;4363717;28;658631;-67
2022/10/14 04:08:53;;;;;;;33.93;18.20;;;8.70;99.90;;;;;;4372298;28;660042;-67
2022/10/14 04:11:40;;;;;;;34.63;18.37;;;8.70;99.90;;;;;;4359198;28;658824;-68
2022/10/14 04:14:27;;;;;;;34.93;19.10;;;8.60;99.90;;;;;;4377871;28;658541;-67
2022/10/14 04:17:15;;;;;;;39.53;18.73;;;8.60;99.90;;;;;;4372058;28;658892;-68
2022/10/14 04:20:05;;;;;;;38.17;19.42;;;8.60;99.90;;;;;;4371027;28;659663;-67
2022/10/14 04:22:52;;;;;;;36.27;18.67;;;8.60;99.90;;;;;;4347706;28;659347;-67
2022/10/14 04:25:39;;;;;;;39.20;18.53;;;8.60;99.90;;;;;;4365196;28;660458;-67
2022/10/14 04:28:26;;;;;;;42.77;18.63;;;8.50;99.90;;;;;;4353790;28;658854;-67
2022/10/14 04:31:13;;;;;;;32.13;18.67;;;8.50;99.90;;;;;;4370873;28;659882;-67
2022/10/14 04:34:00;;;;;;;37.83;19.57;;;8.50;99.90;;;;;;4347615;28;658695;-67
2022/10/14 04:36:49;;;;;;;34.90;18.53;;;8.50;99.90;;;;;;4368284;28;660375;-67
2022/10/14 04:39:37;;;;;;;35.03;18.90;;;8.50;99.90;;;;;;4352065;28;658922;-67
2022/10/14 04:42:24;;;;;;;39.23;19.60;;;8.50;99.90;;;;;;4369194;28;658849;-66
2022/10/14 04:45:11;;;;;;;34.73;19.03;;;8.50;99.90;;;;;;4345889;28;658869;-67
2022/10/14 04:47:58;;;;;;;37.60;19.30;;;8.40;99.90;;;;;;4363043;28;659947;-67
2022/10/14 04:50:46;;;;;;;33.77;19.53;;;8.30;99.90;;;;;;4346920;28;658638;-67
2022/10/14 04:53:34;;;;;;;32.90;19.33;;;8.30;99.90;;;;;;4370565;28;658738;-67
2022/10/14 04:56:21;;;;;;;34.83;19.23;;;8.20;99.90;;;;;;4341548;28;658980;-67
2022/10/14 04:59:08;;;;;;;36.63;19.53;;;8.20;99.90;;;;;;4368845;28;659531;-67
2022/10/14 05:01:56;;;;;;;33.20;18.07;;;8.20;99.90;;;;;;4342407;28;659142;-67
2022/10/14 05:04:43;;;;;;;35.23;18.83;;;8.10;99.90;;;;;;4372086;28;659180;-66
2022/10/14 05:07:30;;;;;;;34.80;18.77;;;8.10;99.90;;;;;;4355617;28;659076;-68
2022/10/14 05:10:19;;;;;;;33.07;17.77;;;8.10;99.90;;;;;;4368881;28;660053;-66
2022/10/14 05:13:06;;;;;;;38.27;19.53;;;8.10;99.90;;;;;;4341686;28;658647;-67
2022/10/14 05:15:53;;;;;;;36.57;18.93;;;8.20;99.90;;;;;;4368718;28;659528;-66
2022/10/14 05:18:40;;;;;;;33.37;18.67;;;8.10;99.90;;;;;;4350902;28;658601;-67
2022/10/14 05:21:27;;;;;;;36.97;18.97;;;8.20;99.90;;;;;;4369532;28;658776;-67
2022/10/14 05:24:15;;;;;;;39.73;19.20;;;8.10;99.90;;;;;;4368944;28;660330;-66
2022/10/14 05:27:03;;;;;;;32.07;18.07;;;8.20;99.90;;;;;;4344014;28;659642;-66
2022/10/14 05:29:50;;;;;;;37.87;19.43;;;8.20;99.90;;;;;;4349380;28;659092;-67
2022/10/14 05:32:38;;;;;;;37.50;18.60;;;8.30;99.90;;;;;;4371216;28;660894;-67
2022/10/14 05:35:25;;;;;;;36.63;19.97;;;8.30;99.90;;;;;;4362131;28;659320;-67
2022/10/14 05:38:13;;;;;;;34.27;19.83;;;8.40;99.90;;;;;;4376961;28;658385;-66
2022/10/14 05:41:00;;;;;;;36.83;19.63;;;8.40;99.90;;;;;;4352086;28;658605;-68
2022/10/14 05:43:49;;;;;;;36.93;19.70;;;8.40;99.90;;;;;;4374494;28;659290;-66
2022/10/14 05:46:36;;;;;;;39.53;19.63;;;8.50;99.90;;;;;;4351065;28;658878;-67
2022/10/14 05:49:24;;;;;;;36.97;19.58;;;8.60;99.90;;;;;;4367178;28;659590;-66
2022/10/14 05:52:11;;;;;;;38.43;19.73;;;8.70;99.90;;;;;;4342448;28;658935;-68
2022/10/14 05:54:58;;;;;;;37.97;20.90;;;8.70;99.90;;;;;;4367658;28;659907;-66
2022/10/14 05:57:45;;;;;;;35.37;20.90;;;8.90;99.90;;;;;;4353370;28;658755;-67
2022/10/14 06:00:34;;;;;;;38.00;18.77;;;9.20;99.90;;;;;;4369399;28;659951;-67
2022/10/14 06:03:21;;;;;;;39.43;20.47;;;9.30;99.90;;;;;;4349708;28;659013;-66
2022/10/14 06:06:11;;;;;;;32.70;19.67;;;9.50;99.90;;;;;;4367311;28;660122;-66
2022/10/14 06:08:58;;;;;;;41.17;19.70;;;9.70;99.90;;;;;;4345367;28;659046;-66
2022/10/14 06:11:46;;;;;;;35.67;21.43;;;9.80;99.90;;;;;;4348298;28;658797;-67
2022/10/14 06:14:33;;;;;;;35.30;20.03;;;10.00;99.90;;;;;;4374908;28;659664;-67
2022/10/14 06:17:22;;;;;;;34.33;20.85;;;10.20;99.90;;;;;;4353324;28;659824;-68
2022/10/14 06:20:10;;;;;;;30.70;19.60;;;10.30;99.90;;;;;;4363172;28;659403;-66
2022/10/14 06:22:58;;;;;;;41.13;23.03;;;10.40;99.90;;;;;;4340030;28;660417;-68
2022/10/14 06:25:45;;;;;;;38.27;21.80;;;10.60;99.90;;;;;;4344786;28;659570;-68
2022/10/14 06:28:32;;;;;;;42.00;21.97;;;10.70;99.90;;;;;;4372734;28;659978;-67
2022/10/14 06:31:20;;;;;;;32.37;21.00;;;10.80;99.90;;;;;;4359552;28;659834;-66
2022/10/14 06:34:08;;;;;;;38.13;20.27;;;10.90;99.90;;;;;;4342097;28;661156;-67
2022/10/14 06:36:56;;;;;;;38.30;21.33;;;11.00;99.90;;;;;;4347198;28;660411;-68
2022/10/14 06:39:43;;;;;;;36.90;20.23;;;11.10;99.90;;;;;;4371828;28;660910;-66
2022/10/14 06:42:31;;;;;;;35.57;19.87;;;11.20;99.90;;;;;;4350789;28;661749;-67
2022/10/14 06:45:18;;;;;;;36.53;20.87;;;11.10;99.90;;;;;;4368302;28;660845;-67
2022/10/14 06:48:06;;;;;;;33.47;18.93;;;11.20;99.90;;;;;;4348308;28;659662;-68
2022/10/14 06:50:54;;;;;;;36.90;20.43;;;11.30;99.90;;;;;;4371163;28;660041;-66
2022/10/14 06:53:42;;;;;;;37.13;20.07;;;11.30;99.90;;;;;;4352566;28;659375;-66
2022/10/14 06:56:29;;;;;;;35.00;19.73;;;11.30;99.90;;;;;;4366598;28;659145;-66
2022/10/14 06:59:16;;;;;;;38.37;21.77;;;11.30;99.90;;;;;;4349756;28;660132;-67
2022/10/14 07:02:03;;;;;;;42.93;21.00;;;11.30;99.90;;;;;;4372166;28;661049;-68
2022/10/14 07:04:50;;;;;;;36.43;21.10;;;11.30;99.90;;;;;;4348818;28;659935;-66
2022/10/14 07:07:39;;;;;;;37.07;21.07;;;11.40;99.90;;;;;;4369344;28;660076;-66
2022/10/14 07:10:26;;;;;;;41.20;23.57;;;11.40;99.90;;;;;;4348718;28;661047;-66
2022/10/14 07:13:13;;;;;;;44.67;23.30;;;11.40;99.90;;;;;;4364762;28;660927;-67
2022/10/14 07:16:01;;;;;;;44.70;22.33;;;11.50;99.90;;;;;;4351250;28;659603;-67
2022/10/14 07:18:48;;;;;;;42.07;22.73;;;11.60;99.90;;;;;;4369823;28;660442;-66
2022/10/14 07:21:35;;;;;;;40.50;22.50;;;11.80;99.90;;;;;;4350180;28;659613;-68
2022/10/14 07:24:24;;;;;;;35.23;20.87;;;11.80;99.90;;;;;;4370851;28;659444;-67
2022/10/14 07:27:11;;;;;;;40.73;22.10;;;11.90;99.90;;;;;;4348961;28;660075;-67
2022/10/14 07:30:00;;;;;;;37.93;22.27;;;12.00;99.90;;;;;;4370013;28;660951;-66
2022/10/14 07:32:47;;;;;;;40.77;21.90;;;12.00;99.90;;;;;;4343992;28;660658;-67
2022/10/14 07:35:35;;;;;;;40.83;21.77;;;12.10;99.90;;;;;;4365599;28;659861;-66
2022/10/14 07:38:22;;;;;;;44.87;24.80;;;12.20;99.90;;;;;;4346114;28;661065;-67
2022/10/14 07:41:16;;;;;;;43.93;23.47;;;12.30;99.90;;;;;;4366558;28;659867;-66
2022/10/14 07:44:07;;;;;;;44.53;23.40;;;12.50;99.90;;;;;;4342227;28;660714;-67
2022/10/14 07:46:54;;;;;;;40.20;22.73;;;12.70;99.90;;;;;;4344575;28;659646;-67
2022/10/14 07:49:41;;;;;;;41.47;23.53;;;12.80;99.90;;;;;;4348884;28;659619;-68
2022/10/14 07:52:29;;;;;;;46.30;25.90;;;12.90;99.90;;;;;;4364533;28;660026;-67
2022/10/14 07:55:16;;;;;;;45.07;24.77;;;13.10;99.90;;;;;;4345581;28;660023;-67
2022/10/14 07:58:04;;;;;;;44.13;24.67;;;13.30;99.90;;;;;;4366794;28;660856;-67
2022/10/14 08:00:52;;;;;;;35.03;21.60;;;13.40;99.90;;;;;;4350233;28;660488;-66
2022/10/14 08:03:39;;;;;;;37.53;21.17;;;13.40;99.90;;;;;;4367695;28;659676;-67
2022/10/14 08:06:26;;;;;;;32.17;19.57;;;13.60;99.90;;;;;;4349341;28;659584;-67
2022/10/14 08:09:13;;;;;;;33.43;19.40;;;13.70;99.90;;;;;;4369759;28;660396;-67
2022/10/14 08:12:01;;;;;;;35.50;18.40;;;13.90;99.90;;;;;;4347714;28;659915;-68
2022/10/14 08:14:49;;;;;;;37.27;18.30;;;14.00;99.90;;;;;;4364188;28;660199;-66
2022/10/14 08:17:37;;;;;;;31.23;17.70;;;13.90;99.90;;;;;;4342964;28;660515;-67
2022/10/14 08:20:24;;;;;;;31.87;16.03;;;13.90;99.90;;;;;;4367752;28;659849;-68
2022/10/14 08:23:12;;;;;;;27.30;16.70;;;14.10;99.90;;;;;;4348149;28;660207;-67
2022/10/14 08:25:59;;;;;;;36.23;15.80;;;14.40;99.90;;;;;;4366974;28;660216;-67
2022/10/14 08:28:46;;;;;;;28.90;16.23;;;14.60;99.90;;;;;;4350720;28;659728;-68
2022/10/14 08:31:35;;;;;;;25.77;15.90;;;14.70;99.90;;;;;;4367439;28;660676;-67
2022/10/14 08:34:23;;;;;;;24.70;16.00;;;14.80;99.90;;;;;;4344246;28;660805;-69
2022/10/14 08:37:10;;;;;;;28.67;16.37;;;14.90;99.90;;;;;;4346552;28;660608;-68
2022/10/14 08:39:58;;;;;;;26.37;16.50;;;14.90;99.90;;;;;;4362912;28;660344;-66
2022/10/14 08:42:48;;;;;;;26.83;15.43;;;15.10;99.90;;;;;;4344890;28;659682;-67
2022/10/14 08:45:37;;;;;;;29.90;16.33;;;15.30;99.90;;;;;;4344509;28;659997;-67
2022/10/14 08:48:26;;;;;;;33.47;15.77;;;15.60;99.90;;;;;;4368438;28;659768;-68
2022/10/14 08:51:14;;;;;;;24.20;15.33;;;15.50;99.90;;;;;;4341659;28;660012;-67
2022/10/14 08:54:07;;;;;;;29.60;17.10;;;15.40;99.90;;;;;;4347798;28;659761;-67
2022/10/14 08:56:55;;;;;;;37.23;17.60;;;15.50;99.90;;;;;;4343541;28;661214;-66
2022/10/14 08:59:42;;;;;;;29.53;16.07;;;15.60;99.90;;;;;;4339643;28;660383;-67
2022/10/14 09:02:34;;;;;;;25.50;14.97;;;15.80;99.90;;;;;;4369683;28;658994;-67
2022/10/14 09:05:25;;;;;;;27.87;15.53;;;15.50;99.90;;;;;;4346758;28;659984;-67
2022/10/14 09:08:14;;;;;;;25.40;15.63;;;15.70;99.90;;;;;;4344693;28;661015;-67
2022/10/14 09:11:01;;;;;;;27.57;15.73;;;15.90;99.90;;;;;;4343274;28;660219;-67
2022/10/14 09:13:49;;;;;;;25.40;15.53;;;16.10;99.90;;;;;;4365240;28;660942;-67
2022/10/14 09:16:38;;;;;;;27.23;16.03;;;16.10;99.90;;;;;;4346369;28;659207;-67
2022/10/14 09:19:28;;;;;;;25.97;15.90;;;16.00;99.90;;;;;;4346084;28;659725;-67
2022/10/14 09:22:17;;;;;;;30.80;16.50;;;16.00;99.90;;;;;;4342188;28;659895;-67
2022/10/14 09:25:09;;;;;;;31.37;17.17;;;15.80;99.90;;;;;;4364917;28;660397;-67
2022/10/14 09:27:56;;;;;;;30.67;17.57;;;15.60;99.90;;;;;;4349465;28;659408;-67
2022/10/14 09:30:43;;;;;;;27.60;17.60;;;15.80;99.90;;;;;;4364739;28;661284;-67
2022/10/14 09:33:30;;;;;;;29.70;17.13;;;16.00;99.90;;;;;;4346642;28;659909;-67
2022/10/14 09:36:19;;;;;;;29.13;17.90;;;16.00;99.90;;;;;;4364465;28;660397;-67
2022/10/14 09:39:08;;;;;;;37.30;19.63;;;15.90;99.90;;;;;;4345845;28;659810;-68
2022/10/14 09:41:55;;;;;;;32.20;18.90;;;15.60;99.90;;;;;;4346845;28;660213;-68
2022/10/14 09:44:43;;;;;;;30.70;18.03;;;15.50;99.90;;;;;;4365290;28;660817;-67
2022/10/14 09:47:30;;;;;;;27.63;18.03;;;15.40;99.90;;;;;;4359263;28;659787;-68
2022/10/14 09:50:22;;;;;;;36.10;18.13;;;15.50;99.90;;;;;;4363024;28;659595;-67
2022/10/14 09:53:15;;;;;;;30.07;18.33;;;15.60;99.90;;;;;;4340740;28;660931;-69
2022/10/14 09:56:04;;;;;;;32.90;18.60;;;15.60;99.90;;;;;;4346346;28;660888;-67
2022/10/14 09:58:53;;;;;;;31.20;18.40;;;15.50;99.90;;;;;;4343880;28;660299;-67
2022/10/14 10:01:41;;;;;;;33.37;18.83;;;15.30;99.90;;;;;;4348066;28;660277;-67
2022/10/14 10:04:36;;;;;;;36.97;19.60;;;15.30;99.90;;;;;;4364920;28;660731;-67
2022/10/14 10:07:26;;;;;;;33.97;18.90;;;15.40;99.90;;;;;;4346076;28;660199;-67
2022/10/14 10:10:18;;;;;;;34.67;18.87;;;15.60;99.90;;;;;;4345017;28;660244;-67
2022/10/14 10:13:15;;;;;;;37.10;19.10;;;15.60;99.90;;;;;;4329867;28;659808;-68
2022/10/14 10:16:03;;;;;;;39.55;19.45;;;15.70;99.90;;;;;;4321019;28;660158;-67
2022/10/14 10:18:51;;;;;;;35.57;19.47;;;15.60;99.90;;;;;;4348110;28;659932;-67
2022/10/14 10:21:38;;;;;;;33.67;19.67;;;16.00;99.90;;;;;;4367684;28;660634;-67
2022/10/14 10:24:26;;;;;;;29.97;17.43;;;16.20;99.90;;;;;;4351624;28;659595;-67
2022/10/14 10:27:19;;;;;;;31.27;17.47;;;16.20;99.90;;;;;;4373319;28;660398;-67
2022/10/14 10:30:20;;;;;;;34.00;16.87;;;16.00;99.90;;;;;;4351972;28;660775;-68
2022/10/14 10:33:20;;;;;;;31.03;16.37;;;15.80;99.90;;;;;;4314971;28;660143;-67
2022/10/14 10:36:16;;;;;;;33.53;17.27;;;16.00;99.90;;;;;;4311141;28;660081;-68
2022/10/14 10:39:05;;;;;;;29.30;16.53;;;16.00;99.90;;;;;;4325105;28;659389;-67
2022/10/14 10:41:58;;;;;;;28.67;16.50;;;16.10;99.90;;;;;;4325538;28;660325;-67
2022/10/14 10:44:57;;;;;;;29.27;17.30;;;16.00;99.90;;;;;;4304173;28;659742;-67
2022/10/14 10:47:47;;;;;;;33.13;17.20;;;16.20;99.90;;;;;;4327741;28;660522;-66
2022/10/14 10:50:41;;;;;;;29.87;15.90;;;15.70;99.90;;;;;;4350863;28;659305;-67
2022/10/14 10:53:49;;;;;;;30.27;16.90;;;16.10;99.90;;;;;;4329268;28;659673;-67
2022/10/14 10:56:40;;;;;;;28.80;16.83;;;15.90;99.90;;;;;;4330843;28;659316;-67
2022/10/14 10:59:34;;;;;;;28.27;16.67;;;15.30;99.90;;;;;;4330577;28;660745;-67
2022/10/14 11:02:50;;;;;;;32.20;17.63;;;15.50;99.90;;;;;;4312413;28;660339;-67
2022/10/14 11:05:42;;;;;;;33.90;17.67;;;15.50;99.90;;;;;;4303706;28;660351;-67
2022/10/14 11:12:09;;;;;;;30.60;17.40;;;15.60;99.90;;;;;;4331978;28;659442;-67
2022/10/14 11:15:17;;;;;;;34.57;18.07;;;15.50;99.90;;;;;;4328606;28;659509;-67
2022/10/14 11:18:09;;;;;;;34.83;18.60;;;15.50;99.90;;;;;;4345474;28;659579;-67
2022/10/14 11:21:03;;;;;;;35.30;16.77;;;15.90;99.90;;;;;;4330728;28;660176;-67
2022/10/14 11:23:58;;;;;;;32.50;18.33;;;16.10;99.90;;;;;;4305777;28;659392;-67
2022/10/14 11:27:07;;;;;;;33.60;16.97;;;16.00;99.90;;;;;;4311296;28;660340;-67
2022/10/14 11:30:12;;;;;;;35.43;19.10;;;16.50;99.90;;;;;;4331582;28;659953;-67
2022/10/14 11:33:09;;;;;;;32.00;16.77;;;16.90;99.90;;;;;;4331324;28;660158;-66
2022/10/14 11:36:01;;;;;;;21.10;12.40;;;17.80;99.90;;;;;;4307148;28;659980;-66
2022/10/14 11:38:59;;;;;;;28.30;16.70;;;17.80;99.90;;;;;;4343798;28;660157;-67
2022/10/14 11:41:55;;;;;;;37.67;19.73;;;17.50;99.90;;;;;;4349179;28;659973;-67
2022/10/14 11:44:43;;;;;;;27.67;17.70;;;17.50;99.90;;;;;;4324099;28;661018;-67
2022/10/14 11:47:32;;;;;;;34.83;19.27;;;17.50;99.90;;;;;;4356630;28;660598;-68
2022/10/14 11:50:23;;;;;;;28.57;16.70;;;17.90;99.90;;;;;;4368247;28;659400;-67
2022/10/14 11:53:13;;;;;;;31.27;16.67;;;18.90;99.90;;;;;;4345136;28;659550;-67
2022/10/14 11:56:02;;;;;;;27.47;15.93;;;19.00;99.90;;;;;;4356289;28;659499;-67
2022/10/14 11:58:50;;;;;;;32.33;17.40;;;18.50;99.90;;;;;;4368430;28;659742;-67
2022/10/14 12:01:37;;;;;;;31.37;17.70;;;18.40;99.90;;;;;;4345738;28;660801;-67
2022/10/14 12:04:27;;;;;;;37.77;18.90;;;18.50;99.90;;;;;;4366130;28;659330;-68
2022/10/14 12:07:18;;;;;;;29.47;16.03;;;17.60;99.90;;;;;;4360845;28;659652;-67
2022/10/14 12:10:12;;;;;;;32.30;18.93;;;18.50;99.90;;;;;;4360103;28;659719;-67
2022/10/14 12:12:59;;;;;;;35.73;18.70;;;18.50;99.90;;;;;;4348664;28;659607;-67
2022/10/14 12:15:48;;;;;;;32.03;16.50;;;18.80;99.90;;;;;;4352078;28;659931;-66
2022/10/14 12:18:36;;;;;;;30.67;17.37;;;18.30;99.90;;;;;;4351959;28;659843;-68
2022/10/14 12:21:27;;;;;;;32.20;18.30;;;18.20;99.90;;;;;;4361016;28;660486;-67
2022/10/14 12:24:18;;;;;;;33.95;17.55;;;17.90;99.90;;;;;;4344916;28;659726;-67
2022/10/14 12:27:06;;;;;;;35.53;17.38;;;18.50;99.90;;;;;;4321774;28;660029;-67
2022/10/14 12:29:56;;;;;;;35.73;18.77;;;18.20;99.90;;;;;;4365655;28;660886;-67
2022/10/14 12:32:59;;;;;;;26.33;17.97;;;18.40;99.90;;;;;;4345120;28;660072;-67
2022/10/14 12:35:52;;;;;;;37.43;17.93;;;18.80;99.90;;;;;;4315657;28;660308;-66
2022/10/14 12:38:39;;;;;;;32.30;18.87;;;19.30;99.90;;;;;;4347334;28;661118;-67
2022/10/14 12:41:38;;;;;;;26.80;14.83;;;17.90;99.90;;;;;;4348307;28;660866;-67
2022/10/14 12:44:28;;;;;;;32.90;19.43;;;17.40;99.90;;;;;;4335894;28;659245;-68
2022/10/14 12:47:17;;;;;;;34.67;18.87;;;17.30;99.90;;;;;;4349700;28;660676;-68
2022/10/14 12:50:06;;;;;;;34.60;18.63;;;17.20;99.90;;;;;;4367171;28;660339;-67
2022/10/14 12:52:56;;;;;;;39.73;19.70;;;17.00;99.90;;;;;;4339943;28;659566;-67
2022/10/14 12:55:48;;;;;;;43.10;20.23;;;16.40;99.90;;;;;;4346881;28;660054;-67
2022/10/14 12:58:38;;;;;;;41.53;20.73;;;16.20;99.90;;;;;;4326709;28;660716;-68
2022/10/14 13:01:25;;;;;;;42.07;21.40;;;15.90;99.90;;;;;;4348880;28;659844;-67
2022/10/14 13:04:17;;;;;;;34.53;20.27;;;15.70;99.90;;;;;;4364777;28;660382;-67
2022/10/14 13:07:33;;;;;;;36.83;19.23;;;15.70;99.90;;;;;;4339340;28;659737;-67
2022/10/14 13:10:46;;;;;;;37.17;20.23;;;15.80;99.90;;;;;;4333017;28;659875;-68
2022/10/14 13:14:18;;;;;;;39.33;20.17;;;15.60;99.90;;;;;;4349743;28;661745;-68
2022/10/14 13:17:27;;;;;;;39.40;21.67;;;15.60;99.90;;;;;;4264408;29;659785;-67
2022/10/14 13:20:49;;;;;;;39.20;22.47;;;15.30;99.90;;;;;;4344254;28;660837;-68
2022/10/14 13:23:39;;;;;;;40.40;21.57;;;15.20;99.90;;;;;;4316168;28;660178;-67
2022/10/14 13:26:30;;;;;;;39.17;21.87;;;15.20;99.90;;;;;;4351058;28;660611;-67
2022/10/14 13:29:23;;;;;;;39.40;22.93;;;15.20;99.90;;;;;;4348564;28;661112;-67
2022/10/14 13:32:12;;;;;;;49.60;25.20;;;15.20;99.90;;;;;;4329668;28;659790;-68
2022/10/14 13:35:05;;;;;;;49.50;25.57;;;15.40;99.90;;;;;;4354209;28;659756;-67
2022/10/14 13:37:58;;;;;;;52.92;25.77;;;15.50;99.90;;;;;;4338671;28;660697;-67
2022/10/14 13:40:46;;;;;;;43.47;23.40;;;15.70;99.90;;;;;;4320106;28;660376;-67
2022/10/14 13:43:36;;;;;;;43.60;23.67;;;15.80;99.90;;;;;;4364581;28;660020;-67
2022/10/14 13:46:27;;;;;;;41.23;23.53;;;15.80;99.90;;;;;;4340540;28;661320;-67
2022/10/14 13:49:15;;;;;;;43.30;20.93;;;15.70;99.90;;;;;;4345940;28;659798;-67
2022/10/14 13:52:03;;;;;;;43.33;22.48;;;15.80;99.90;;;;;;4343651;28;659978;-67
2022/10/14 13:55:05;;;;;;;39.40;21.23;;;15.90;99.90;;;;;;4341729;28;659477;-67
2022/10/14 13:58:02;;;;;;;42.57;21.70;;;16.00;99.90;;;;;;4344882;28;659678;-67
2022/10/14 14:00:52;;;;;;;40.50;20.57;;;16.30;99.90;;;;;;4340445;28;660397;-67
2022/10/14 14:03:42;;;;;;;36.40;19.80;;;16.40;99.90;;;;;;4367960;28;659894;-67
2022/10/14 14:06:29;;;;;;;34.10;19.13;;;17.00;99.90;;;;;;4349122;28;659309;-66
2022/10/14 14:09:18;;;;;;;28.03;14.50;;;17.60;99.90;;;;;;4347167;28;659691;-66
2022/10/14 14:12:06;;;;;;;28.20;15.20;;;18.20;99.90;;;;;;4345433;28;659708;-67
2022/10/14 14:14:53;;;;;;;34.77;15.43;;;17.70;99.90;;;;;;4361743;28;659903;-67
2022/10/14 14:17:40;;;;;;;23.80;13.50;;;17.00;99.90;;;;;;4352249;28;659761;-66